createdAt,value
2022-10-23T00:02:35.173Z,100289.00
2022-10-23T00:07:37.839Z,100292.56
2022-10-23T00:12:42.068Z,100294.41
2022-10-23T00:17:45.132Z,100287.38
2022-10-23T00:22:48.168Z,100282.09
2022-10-23T00:27:52.149Z,100286.88
2022-10-23T00:32:54.811Z,100285.28
2022-10-23T00:37:57.478Z,100284.53
2022-10-23T00:43:01.695Z,100285.88
2022-10-23T00:48:05.245Z,100290.00
2022-10-23T00:53:11.167Z,100279.81
2022-10-23T00:58:15.561Z,100283.97
2022-10-23T01:03:21.007Z,100283.47
2022-10-23T01:08:32.291Z,100286.66
2022-10-23T01:13:44.218Z,100285.28
2022-10-23T01:18:55.884Z,100283.94
2022-10-23T01:24:11.205Z,100289.66
2022-10-23T01:29:21.818Z,100287.44
2022-10-23T01:34:31.716Z,100278.91
2022-10-23T01:39:39.440Z,100272.91
2022-10-23T01:44:47.949Z,100269.69
2022-10-23T01:49:53.394Z,100260.22
2022-10-23T01:55:01.561Z,100259.50
2022-10-23T02:00:12.793Z,100275.03
2022-10-23T02:05:29.933Z,100270.69
2022-10-23T02:10:49.359Z,100267.25
2022-10-23T02:16:01.937Z,100262.97
2022-10-23T02:21:10.710Z,100259.50
2022-10-23T02:26:18.663Z,100261.34
2022-10-23T02:31:25.927Z,100261.47
2022-10-23T02:36:29.498Z,100252.75
2022-10-23T02:41:42.254Z,100245.50
2022-10-23T02:46:54.223Z,100246.81
2022-10-23T02:52:08.012Z,100248.06
2022-10-23T02:57:20.676Z,100245.56
2022-10-23T03:07:41.061Z,100251.41
2022-10-23T03:12:47.356Z,100243.44
2022-10-23T03:17:51.527Z,100239.03
2022-10-23T03:22:54.193Z,100242.69
2022-10-23T03:27:56.806Z,100234.84
2022-10-23T03:33:00.875Z,100249.41
2022-10-23T03:38:03.539Z,100256.00
2022-10-23T03:43:07.082Z,100245.44
2022-10-23T03:48:11.286Z,100242.00
2022-10-23T03:53:14.008Z,100243.19
2022-10-23T03:58:16.862Z,100229.06
2022-10-23T04:03:21.057Z,100228.34
2022-10-23T04:08:23.944Z,100226.94
2022-10-23T04:13:29.577Z,100235.25
2022-10-23T04:18:34.149Z,100242.84
2022-10-23T04:23:36.806Z,100243.88
2022-10-23T04:28:41.171Z,100245.06
2022-10-23T04:33:45.358Z,100253.50
2022-10-23T04:39:01.710Z,100256.41
2022-10-23T04:44:04.429Z,100249.28
2022-10-23T04:49:10.719Z,100233.25
2022-10-23T04:54:22.134Z,100230.63
2022-10-23T04:59:34.190Z,100229.78
2022-10-23T05:04:38.531Z,100237.25
2022-10-23T05:09:59.858Z,100234.75
2022-10-23T05:15:14.195Z,100233.16
2022-10-23T05:20:22.407Z,100226.00
2022-10-23T05:25:25.155Z,100214.63
2022-10-23T05:30:36.608Z,100221.06
2022-10-23T05:35:43.088Z,100222.03
2022-10-23T05:40:45.958Z,100223.13
2022-10-23T05:45:55.057Z,100218.69
2022-10-23T05:51:05.449Z,100226.16
2022-10-23T05:56:24.791Z,100217.41
2022-10-23T06:01:51.116Z,100217.75
2022-10-23T06:07:06.524Z,100215.28
2022-10-23T06:12:09.592Z,100215.16
2022-10-23T06:17:12.395Z,100209.03
2022-10-23T06:27:35.695Z,100217.00
2022-10-23T06:32:40.935Z,100217.00
2022-10-23T06:37:49.721Z,100211.50
2022-10-23T06:43:01.004Z,100222.50
2022-10-23T06:48:13.128Z,100225.28
2022-10-23T06:53:36.661Z,100229.72
2022-10-23T06:58:51.127Z,100229.59
2022-10-23T07:03:53.865Z,100230.47
2022-10-23T07:09:03.658Z,100229.16
2022-10-23T07:14:24.763Z,100232.41
2022-10-23T07:19:27.932Z,100224.09
2022-10-23T07:24:38.558Z,100218.81
2022-10-23T07:29:51.303Z,100224.19
2022-10-23T07:34:54.328Z,100228.00
2022-10-23T07:40:06.664Z,100239.31
2022-10-23T07:45:16.155Z,100228.16
2022-10-23T07:50:20.756Z,100227.22
2022-10-23T07:55:25.837Z,100224.88
2022-10-23T08:00:36.013Z,100225.75
2022-10-23T08:05:47.767Z,100230.56
2022-10-23T08:10:53.747Z,100223.13
2022-10-23T08:16:02.426Z,100210.88
2022-10-23T08:21:28.343Z,100200.53
2022-10-23T08:26:32.511Z,100179.72
2022-10-23T08:31:35.219Z,100185.63
2022-10-23T08:36:51.614Z,100188.22
2022-10-23T08:41:55.704Z,100183.59
2022-10-23T08:47:04.871Z,100201.34
2022-10-23T08:52:22.924Z,100186.91
2022-10-23T08:57:34.505Z,100190.38
2022-10-23T09:02:41.929Z,100182.16
2022-10-23T09:07:59.916Z,100183.88
2022-10-23T09:13:31.428Z,100199.84
2022-10-23T09:18:35.288Z,100216.63
2022-10-23T09:23:39.126Z,100197.69
2022-10-23T09:28:48.749Z,100189.34
2022-10-23T09:33:56.474Z,100190.97
2022-10-23T09:39:01.563Z,100178.25
2022-10-23T09:44:19.771Z,100192.47
2022-10-23T09:49:25.226Z,100194.22
2022-10-23T09:54:29.058Z,100190.41
2022-10-23T09:59:34.878Z,100190.28
2022-10-23T10:04:39.890Z,100187.25
2022-10-23T10:09:43.253Z,100175.53
2022-10-23T10:15:11.920Z,100181.69
2022-10-23T10:20:24.811Z,100167.97
2022-10-23T10:25:35.585Z,100160.41
2022-10-23T10:30:50.359Z,100137.66
2022-10-23T10:36:00.263Z,100131.16
2022-10-23T10:41:22.570Z,100134.50
2022-10-23T10:46:33.530Z,100123.56
2022-10-23T10:51:45.093Z,100113.66
2022-10-23T10:56:49.291Z,100105.63
2022-10-23T11:01:57.991Z,100095.31
2022-10-23T11:07:08.024Z,100092.50
2022-10-23T11:12:18.837Z,100099.09
2022-10-23T11:17:27.547Z,100097.66
2022-10-23T11:22:37.654Z,100087.63
2022-10-23T11:28:14.288Z,100078.22
2022-10-23T11:33:55.642Z,100074.06
2022-10-23T11:39:15.657Z,100067.13
2022-10-23T11:44:28.555Z,100067.59
2022-10-23T11:49:33.226Z,100063.44
2022-10-23T11:54:35.840Z,100041.66
2022-10-23T11:59:51.531Z,100023.38
2022-10-23T12:04:56.663Z,100015.06
2022-10-23T12:10:02.091Z,100005.00
2022-10-23T12:15:19.305Z,99987.31
2022-10-23T12:20:40.080Z,99975.44
2022-10-23T12:25:59.028Z,99976.94
2022-10-23T12:31:16.713Z,99976.31
2022-10-23T12:36:41.059Z,99966.00
2022-10-23T12:41:44.213Z,99962.69
2022-10-23T12:46:49.233Z,99968.94
2022-10-23T12:52:02.085Z,99953.16
2022-10-23T12:57:20.923Z,99943.22
2022-10-23T13:02:25.978Z,99934.50
2022-10-23T13:07:35.359Z,99925.28
2022-10-23T13:18:02.275Z,99920.03
2022-10-23T13:23:16.571Z,99923.00
2022-10-23T13:28:24.882Z,99921.16
2022-10-23T13:33:33.538Z,99920.88
2022-10-23T13:38:39.542Z,99905.69
2022-10-23T13:43:44.984Z,99899.66
2022-10-23T13:48:48.888Z,99908.50
2022-10-23T13:53:53.595Z,99895.16
2022-10-23T13:58:56.373Z,99883.75
2022-10-23T14:04:00.220Z,99874.91
2022-10-23T14:09:04.995Z,99878.34
2022-10-23T14:14:07.666Z,99873.06
2022-10-23T14:19:11.924Z,99866.81
2022-10-23T14:24:15.884Z,99863.38
2022-10-23T14:29:23.901Z,99851.72
2022-10-23T14:34:27.317Z,99845.72
2022-10-23T14:39:31.739Z,99831.88
2022-10-23T14:44:34.435Z,99815.69
2022-10-23T14:49:39.966Z,99820.09
2022-10-23T14:54:44.375Z,99823.06
2022-10-23T14:59:47.122Z,99819.75
2022-10-23T15:04:49.798Z,99823.56
2022-10-23T15:09:53.820Z,99823.28
2022-10-23T15:14:56.468Z,99807.38
2022-10-23T15:19:59.434Z,99807.88
2022-10-23T15:25:03.715Z,99811.16
2022-10-23T15:30:07.451Z,99815.84
2022-10-23T15:35:10.073Z,99808.13
2022-10-23T15:40:14.528Z,99802.50
2022-10-23T15:45:17.183Z,99791.94
2022-10-23T15:50:20.630Z,99782.34
2022-10-23T15:55:24.724Z,99786.66
2022-10-23T16:00:27.399Z,99774.13
2022-10-23T16:05:30.211Z,99778.75
2022-10-23T16:10:34.328Z,99779.34
2022-10-23T16:15:38.032Z,99764.84
2022-10-23T16:20:41.087Z,99749.47
2022-10-23T16:25:46.362Z,99738.88
2022-10-23T16:30:49.198Z,99715.38
2022-10-23T16:35:51.871Z,99708.72
2022-10-23T16:41:01.492Z,99713.84
2022-10-23T16:46:18.785Z,99718.63
2022-10-23T16:51:24.636Z,99709.53
2022-10-23T16:56:30.309Z,99701.44
2022-10-23T17:01:34.122Z,99703.88
2022-10-23T17:06:37.506Z,99672.94
2022-10-23T17:11:45.254Z,99671.94
2022-10-23T17:16:50.172Z,99669.25
2022-10-23T17:21:54.259Z,99674.50
2022-10-23T17:26:58.264Z,99686.31
2022-10-23T17:32:01.280Z,99687.16
2022-10-23T17:37:03.914Z,99687.88
2022-10-23T17:42:08.179Z,99678.81
2022-10-23T17:47:10.854Z,99668.97
2022-10-23T17:52:14.979Z,99681.81
2022-10-23T17:57:19.080Z,99681.41
2022-10-23T18:02:21.966Z,99672.56
2022-10-23T18:07:26.503Z,99657.34
2022-10-23T18:12:30.529Z,99649.09
2022-10-23T18:17:33.467Z,99642.16
2022-10-23T18:22:36.673Z,99617.56
2022-10-23T18:27:41.434Z,99615.84
2022-10-23T18:32:44.235Z,99609.19
2022-10-23T18:37:47.997Z,99611.75
2022-10-23T18:42:52.040Z,99613.44
2022-10-23T18:47:54.772Z,99617.84
2022-10-23T18:52:57.759Z,99601.38
2022-10-23T18:58:01.961Z,99604.22
2022-10-23T19:03:04.929Z,99610.78
2022-10-23T19:08:07.732Z,99611.47
2022-10-23T19:13:11.996Z,99604.50
2022-10-23T19:18:14.841Z,99597.81
2022-10-23T19:23:17.544Z,99591.00
2022-10-23T19:28:21.547Z,99577.91
2022-10-23T19:33:24.161Z,99564.09
2022-10-23T19:38:26.907Z,99554.44
2022-10-23T19:43:30.983Z,99538.06
2022-10-23T19:48:33.966Z,99531.38
2022-10-23T19:53:36.764Z,99528.25
2022-10-23T19:58:41.419Z,99531.66
2022-10-23T20:03:46.088Z,99531.38
2022-10-23T20:08:49.389Z,99536.94
2022-10-23T20:13:53.791Z,99538.78
2022-10-23T20:18:57.282Z,99535.22
2022-10-23T20:24:00.090Z,99541.75
2022-10-23T20:29:04.347Z,99578.47
2022-10-23T20:34:07.434Z,99603.22
2022-10-23T20:39:12.389Z,99620.72
2022-10-23T20:44:18.831Z,99637.25
2022-10-23T20:49:22.145Z,99666.28
2022-10-23T20:54:25.323Z,99681.50
2022-10-23T20:59:29.322Z,99696.28
2022-10-23T21:04:31.966Z,99714.81
2022-10-23T21:09:34.838Z,99731.19
2022-10-23T21:14:38.950Z,99729.22
2022-10-23T21:19:41.648Z,99742.44
2022-10-23T21:24:44.321Z,99747.28
2022-10-23T21:29:48.314Z,99768.03
2022-10-23T21:34:50.997Z,99758.38
2022-10-23T21:39:53.634Z,99752.91
2022-10-23T21:44:57.601Z,99769.28
2022-10-23T21:50:00.330Z,99761.41
2022-10-23T21:55:03.160Z,99736.66
2022-10-23T22:00:09.010Z,99737.06
2022-10-23T22:05:15.454Z,99749.84
2022-10-23T22:10:18.352Z,99723.81
2022-10-23T22:15:22.474Z,99732.78
2022-10-23T22:20:25.433Z,99712.00
2022-10-23T22:25:28.082Z,99691.38
2022-10-23T22:30:32.108Z,99677.00
2022-10-23T22:35:34.740Z,99704.34
2022-10-23T22:40:37.765Z,99707.44
2022-10-23T22:45:41.883Z,99709.00
2022-10-23T22:50:47.036Z,99712.00
2022-10-23T22:55:49.929Z,99716.41
2022-10-23T23:01:03.598Z,99704.13
2022-10-23T23:06:08.654Z,99701.59
2022-10-23T23:11:14.245Z,99698.28
2022-10-23T23:16:23.633Z,99690.56
2022-10-23T23:21:27.237Z,99678.34
2022-10-23T23:26:30.184Z,99683.13
2022-10-23T23:31:34.316Z,99696.31
2022-10-23T23:36:36.957Z,99702.13
2022-10-23T23:41:40.104Z,99686.44
2022-10-23T23:46:44.094Z,99695.94
2022-10-23T23:51:46.817Z,99701.88
2022-10-23T23:56:49.415Z,99705.81
